sensor_id;sensor_type;location;lat;lon;timestamp;P1;P2;P0
84436;PMS1003;74664;45.620;5.138;2024-02-23T00:01:44;0.00;0.00;0.00
84436;PMS1003;74664;45.620;5.138;2024-02-23T00:04:11;0.00;0.00;0.00
84436;PMS1003;74664;45.620;5.138;2024-02-23T00:06:37;0.00;0.00;0.00
84436;PMS1003;74664;45.620;5.138;2024-02-23T00:09:04;0.00;0.00;0.00
84436;PMS1003;74664;45.620;5.138;2024-02-23T00:11:31;0.00;0.00;0.00
84436;PMS1003;74664;45.620;5.138;2024-02-23T00:13:59;0.00;0.00;0.00
84436;PMS1003;74664;45.620;5.138;2024-02-23T00:16:26;0.00;0.00;0.00
84436;PMS1003;74664;45.620;5.138;2024-02-23T00:18:55;0.00;0.00;0.00
84436;PMS1003;74664;45.620;5.138;2024-02-23T00:21:23;1.75;0.00;0.00
84436;PMS1003;74664;45.620;5.138;2024-02-23T00:23:50;0.00;0.00;0.00
84436;PMS1003;74664;45.620;5.138;2024-02-23T00:26:16;0.00;0.00;0.00
84436;PMS1003;74664;45.620;5.138;2024-02-23T00:28:43;0.00;0.00;0.00
84436;PMS1003;74664;45.620;5.138;2024-02-23T00:31:09;0.00;0.00;0.00
84436;PMS1003;74664;45.620;5.138;2024-02-23T00:33:36;0.00;0.00;0.00
84436;PMS1003;74664;45.620;5.138;2024-02-23T00:36:08;0.00;0.00;0.00
84436;PMS1003;74664;45.620;5.138;2024-02-23T00:38:35;0.00;0.00;0.00
84436;PMS1003;74664;45.620;5.138;2024-02-23T00:41:02;0.00;0.00;0.00
84436;PMS1003;74664;45.620;5.138;2024-02-23T00:43:29;0.00;0.00;0.00
84436;PMS1003;74664;45.620;5.138;2024-02-23T00:45:55;0.00;0.00;0.00
84436;PMS1003;74664;45.620;5.138;2024-02-23T00:48:22;0.00;0.00;0.00
84436;PMS1003;74664;45.620;5.138;2024-02-23T00:50:48;0.00;0.00;0.00
84436;PMS1003;74664;45.620;5.138;2024-02-23T00:53:17;0.00;0.00;0.00
84436;PMS1003;74664;45.620;5.138;2024-02-23T00:55:45;0.00;0.00;0.00
84436;PMS1003;74664;45.620;5.138;2024-02-23T00:58:12;0.00;0.00;0.00
84436;PMS1003;74664;45.620;5.138;2024-02-23T01:00:38;0.00;0.00;0.00
84436;PMS1003;74664;45.620;5.138;2024-02-23T01:03:06;0.00;0.00;0.00
84436;PMS1003;74664;45.620;5.138;2024-02-23T01:05:33;0.00;0.00;0.00
84436;PMS1003;74664;45.620;5.138;2024-02-23T01:08:00;0.00;0.00;0.00
84436;PMS1003;74664;45.620;5.138;2024-02-23T01:10:28;0.00;0.00;0.00
84436;PMS1003;74664;45.620;5.138;2024-02-23T01:12:55;0.00;0.00;0.00
84436;PMS1003;74664;45.620;5.138;2024-02-23T01:15:22;0.00;0.00;0.00
84436;PMS1003;74664;45.620;5.138;2024-02-23T01:17:49;0.00;0.00;0.00
84436;PMS1003;74664;45.620;5.138;2024-02-23T01:20:15;0.00;0.00;0.00
84436;PMS1003;74664;45.620;5.138;2024-02-23T01:22:42;0.00;0.00;0.00
84436;PMS1003;74664;45.620;5.138;2024-02-23T01:25:09;0.00;0.00;0.00
84436;PMS1003;74664;45.620;5.138;2024-02-23T01:27:37;0.00;0.00;0.00
84436;PMS1003;74664;45.620;5.138;2024-02-23T01:30:05;0.00;0.00;0.00
84436;PMS1003;74664;45.620;5.138;2024-02-23T01:32:32;0.00;0.00;0.00
84436;PMS1003;74664;45.620;5.138;2024-02-23T01:35:00;0.00;0.00;0.00
84436;PMS1003;74664;45.620;5.138;2024-02-23T01:37:27;0.00;0.00;0.00
84436;PMS1003;74664;45.620;5.138;2024-02-23T01:39:53;0.00;0.00;0.00
84436;PMS1003;74664;45.620;5.138;2024-02-23T01:42:21;0.00;0.00;0.00
84436;PMS1003;74664;45.620;5.138;2024-02-23T01:44:50;0.00;0.00;0.00
84436;PMS1003;74664;45.620;5.138;2024-02-23T01:47:17;0.50;0.00;0.00
84436;PMS1003;74664;45.620;5.138;2024-02-23T01:49:44;0.00;0.00;0.00
84436;PMS1003;74664;45.620;5.138;2024-02-23T01:52:12;0.00;0.00;0.00
84436;PMS1003;74664;45.620;5.138;2024-02-23T01:54:40;0.00;0.00;0.00
84436;PMS1003;74664;45.620;5.138;2024-02-23T01:57:07;0.00;0.00;0.00
84436;PMS1003;74664;45.620;5.138;2024-02-23T01:59:35;0.00;0.00;0.00
84436;PMS1003;74664;45.620;5.138;2024-02-23T02:02:05;1.00;1.00;0.00
84436;PMS1003;74664;45.620;5.138;2024-02-23T02:04:32;0.00;0.00;0.00
84436;PMS1003;74664;45.620;5.138;2024-02-23T02:06:59;0.00;0.00;0.00
84436;PMS1003;74664;45.620;5.138;2024-02-23T02:09:36;0.00;0.00;0.00
84436;PMS1003;74664;45.620;5.138;2024-02-23T02:12:40;0.00;0.00;0.00
84436;PMS1003;74664;45.620;5.138;2024-02-23T02:15:07;0.00;0.00;0.00
84436;PMS1003;74664;45.620;5.138;2024-02-23T02:17:36;0.00;0.00;0.00
84436;PMS1003;74664;45.620;5.138;2024-02-23T02:20:03;0.00;0.00;0.00
84436;PMS1003;74664;45.620;5.138;2024-02-23T02:22:31;0.00;0.00;0.00
84436;PMS1003;74664;45.620;5.138;2024-02-23T02:24:59;0.75;0.00;0.00
84436;PMS1003;74664;45.620;5.138;2024-02-23T02:27:25;0.00;0.00;0.00
84436;PMS1003;74664;45.620;5.138;2024-02-23T02:29:52;0.00;0.00;0.00
84436;PMS1003;74664;45.620;5.138;2024-02-23T02:32:19;1.00;0.00;0.00
84436;PMS1003;74664;45.620;5.138;2024-02-23T02:34:47;0.00;0.00;0.00
84436;PMS1003;74664;45.620;5.138;2024-02-23T02:37:14;0.00;0.00;0.00
84436;PMS1003;74664;45.620;5.138;2024-02-23T02:39:40;0.00;0.00;0.00
84436;PMS1003;74664;45.620;5.138;2024-02-23T02:42:09;0.00;0.00;0.00
84436;PMS1003;74664;45.620;5.138;2024-02-23T02:44:35;0.75;0.75;0.50
84436;PMS1003;74664;45.620;5.138;2024-02-23T02:47:02;0.00;0.00;0.00
84436;PMS1003;74664;45.620;5.138;2024-02-23T02:49:29;0.00;0.00;0.00
84436;PMS1003;74664;45.620;5.138;2024-02-23T02:51:57;0.00;0.00;0.00
84436;PMS1003;74664;45.620;5.138;2024-02-23T02:54:24;0.00;0.00;0.00
84436;PMS1003;74664;45.620;5.138;2024-02-23T02:56:50;0.00;0.00;0.00
84436;PMS1003;74664;45.620;5.138;2024-02-23T02:59:19;0.00;0.00;0.00
84436;PMS1003;74664;45.620;5.138;2024-02-23T03:01:45;0.00;0.00;0.00
84436;PMS1003;74664;45.620;5.138;2024-02-23T03:04:13;0.00;0.00;0.00
84436;PMS1003;74664;45.620;5.138;2024-02-23T03:06:40;1.00;0.00;0.00
84436;PMS1003;74664;45.620;5.138;2024-02-23T03:09:10;1.00;1.00;0.00
84436;PMS1003;74664;45.620;5.138;2024-02-23T03:11:37;1.75;0.25;0.00
84436;PMS1003;74664;45.620;5.138;2024-02-23T03:14:04;1.25;1.25;1.00
84436;PMS1003;74664;45.620;5.138;2024-02-23T03:16:31;1.75;0.00;0.00
84436;PMS1003;74664;45.620;5.138;2024-02-23T03:18:59;1.00;1.00;0.75
84436;PMS1003;74664;45.620;5.138;2024-02-23T03:21:26;0.25;0.00;0.00
84436;PMS1003;74664;45.620;5.138;2024-02-23T03:23:52;0.00;0.00;0.00
84436;PMS1003;74664;45.620;5.138;2024-02-23T03:26:20;1.00;1.00;0.00
84436;PMS1003;74664;45.620;5.138;2024-02-23T03:28:47;0.00;0.00;0.00
84436;PMS1003;74664;45.620;5.138;2024-02-23T03:31:14;2.00;0.75;0.00
84436;PMS1003;74664;45.620;5.138;2024-02-23T03:33:41;0.00;0.00;0.00
84436;PMS1003;74664;45.620;5.138;2024-02-23T03:36:08;0.75;0.00;0.00
84436;PMS1003;74664;45.620;5.138;2024-02-23T03:38:35;0.00;0.00;0.00
84436;PMS1003;74664;45.620;5.138;2024-02-23T03:41:01;0.00;0.00;0.00
84436;PMS1003;74664;45.620;5.138;2024-02-23T03:43:29;0.00;0.00;0.00
84436;PMS1003;74664;45.620;5.138;2024-02-23T03:45:58;0.00;0.00;0.00
84436;PMS1003;74664;45.620;5.138;2024-02-23T03:48:24;0.00;0.00;0.00
84436;PMS1003;74664;45.620;5.138;2024-02-23T03:50:51;0.00;0.00;0.00
84436;PMS1003;74664;45.620;5.138;2024-02-23T03:53:19;0.00;0.00;0.00
84436;PMS1003;74664;45.620;5.138;2024-02-23T03:55:46;0.00;0.00;0.00
84436;PMS1003;74664;45.620;5.138;2024-02-23T03:58:12;0.00;0.00;0.00
84436;PMS1003;74664;45.620;5.138;2024-02-23T04:00:40;1.00;0.00;0.00
84436;PMS1003;74664;45.620;5.138;2024-02-23T04:03:08;0.00;0.00;0.00
84436;PMS1003;74664;45.620;5.138;2024-02-23T04:05:35;0.00;0.00;0.00
84436;PMS1003;74664;45.620;5.138;2024-02-23T04:08:02;0.00;0.00;0.00
84436;PMS1003;74664;45.620;5.138;2024-02-23T04:10:28;0.00;0.00;0.00
84436;PMS1003;74664;45.620;5.138;2024-02-23T04:12:58;0.00;0.00;0.00
84436;PMS1003;74664;45.620;5.138;2024-02-23T04:15:24;0.00;0.00;0.00
84436;PMS1003;74664;45.620;5.138;2024-02-23T04:17:52;0.00;0.00;0.00
84436;PMS1003;74664;45.620;5.138;2024-02-23T04:20:19;0.00;0.00;0.00
84436;PMS1003;74664;45.620;5.138;2024-02-23T04:22:46;0.00;0.00;0.00
84436;PMS1003;74664;45.620;5.138;2024-02-23T04:25:13;0.00;0.00;0.00
84436;PMS1003;74664;45.620;5.138;2024-02-23T04:27:39;0.00;0.00;0.00
84436;PMS1003;74664;45.620;5.138;2024-02-23T04:30:06;1.00;0.00;0.00
84436;PMS1003;74664;45.620;5.138;2024-02-23T04:32:34;0.00;0.00;0.00
84436;PMS1003;74664;45.620;5.138;2024-02-23T04:35:02;0.00;0.00;0.00
84436;PMS1003;74664;45.620;5.138;2024-02-23T04:37:29;0.75;0.00;0.00
84436;PMS1003;74664;45.620;5.138;2024-02-23T04:39:58;0.00;0.00;0.00
84436;PMS1003;74664;45.620;5.138;2024-02-23T04:42:24;0.00;0.00;0.00
84436;PMS1003;74664;45.620;5.138;2024-02-23T04:44:52;0.00;0.00;0.00
84436;PMS1003;74664;45.620;5.138;2024-02-23T04:47:20;0.00;0.00;0.00
84436;PMS1003;74664;45.620;5.138;2024-02-23T04:49:46;0.00;0.00;0.00
84436;PMS1003;74664;45.620;5.138;2024-02-23T04:52:15;0.00;0.00;0.00
84436;PMS1003;74664;45.620;5.138;2024-02-23T04:54:42;0.00;0.00;0.00
84436;PMS1003;74664;45.620;5.138;2024-02-23T04:57:09;0.00;0.00;0.00
84436;PMS1003;74664;45.620;5.138;2024-02-23T04:59:36;0.00;0.00;0.00
84436;PMS1003;74664;45.620;5.138;2024-02-23T05:02:03;0.00;0.00;0.00
84436;PMS1003;74664;45.620;5.138;2024-02-23T05:04:30;1.25;0.00;0.00
84436;PMS1003;74664;45.620;5.138;2024-02-23T05:06:57;0.00;0.00;0.00
84436;PMS1003;74664;45.620;5.138;2024-02-23T05:09:25;0.00;0.00;0.00
84436;PMS1003;74664;45.620;5.138;2024-02-23T05:11:51;0.00;0.00;0.00
84436;PMS1003;74664;45.620;5.138;2024-02-23T05:14:18;0.25;0.00;0.00
84436;PMS1003;74664;45.620;5.138;2024-02-23T05:16:44;0.00;0.00;0.00
84436;PMS1003;74664;45.620;5.138;2024-02-23T05:19:11;0.00;0.00;0.00
84436;PMS1003;74664;45.620;5.138;2024-02-23T05:21:38;0.00;0.00;0.00
84436;PMS1003;74664;45.620;5.138;2024-02-23T05:24:05;0.00;0.00;0.00
84436;PMS1003;74664;45.620;5.138;2024-02-23T05:26:33;0.00;0.00;0.00
84436;PMS1003;74664;45.620;5.138;2024-02-23T05:29:00;0.50;0.00;0.00
84436;PMS1003;74664;45.620;5.138;2024-02-23T05:34:11;0.00;0.00;0.00
84436;PMS1003;74664;45.620;5.138;2024-02-23T05:36:38;0.00;0.00;0.00
84436;PMS1003;74664;45.620;5.138;2024-02-23T05:39:05;0.00;0.00;0.00
84436;PMS1003;74664;45.620;5.138;2024-02-23T05:41:35;0.00;0.00;0.00
84436;PMS1003;74664;45.620;5.138;2024-02-23T05:44:02;2.00;1.00;0.00
84436;PMS1003;74664;45.620;5.138;2024-02-23T05:46:31;1.00;1.00;1.00
84436;PMS1003;74664;45.620;5.138;2024-02-23T05:48:58;0.00;0.00;0.00
84436;PMS1003;74664;45.620;5.138;2024-02-23T05:51:25;1.75;0.75;0.25
84436;PMS1003;74664;45.620;5.138;2024-02-23T05:53:51;0.00;0.00;0.00
84436;PMS1003;74664;45.620;5.138;2024-02-23T05:56:18;1.00;1.00;0.75
84436;PMS1003;74664;45.620;5.138;2024-02-23T05:58:46;0.00;0.00;0.00
84436;PMS1003;74664;45.620;5.138;2024-02-23T06:01:13;0.50;0.50;0.00
84436;PMS1003;74664;45.620;5.138;2024-02-23T06:03:40;0.00;0.00;0.00
84436;PMS1003;74664;45.620;5.138;2024-02-23T06:06:07;4.00;4.00;3.50
84436;PMS1003;74664;45.620;5.138;2024-02-23T06:08:34;1.00;1.00;1.00
84436;PMS1003;74664;45.620;5.138;2024-02-23T06:11:02;0.25;0.25;0.25
84436;PMS1003;74664;45.620;5.138;2024-02-23T06:13:29;2.00;2.00;1.00
84436;PMS1003;74664;45.620;5.138;2024-02-23T06:15:57;1.00;1.00;1.00
84436;PMS1003;74664;45.620;5.138;2024-02-23T06:18:24;4.25;1.75;1.50
84436;PMS1003;74664;45.620;5.138;2024-02-23T06:20:51;1.25;1.25;1.00
84436;PMS1003;74664;45.620;5.138;2024-02-23T06:23:17;3.50;2.00;1.00
84436;PMS1003;74664;45.620;5.138;2024-02-23T06:25:47;3.75;2.50;2.00
84436;PMS1003;74664;45.620;5.138;2024-02-23T06:28:13;1.25;1.25;1.00
84436;PMS1003;74664;45.620;5.138;2024-02-23T06:30:40;4.50;3.00;2.00
84436;PMS1003;74664;45.620;5.138;2024-02-23T06:33:08;7.00;6.00;4.00
84436;PMS1003;74664;45.620;5.138;2024-02-23T06:35:34;1.25;1.25;1.00
84436;PMS1003;74664;45.620;5.138;2024-02-23T06:38:01;3.50;3.50;2.00
84436;PMS1003;74664;45.620;5.138;2024-02-23T06:40:28;4.25;4.25;4.00
84436;PMS1003;74664;45.620;5.138;2024-02-23T06:42:54;2.00;2.00;2.00
84436;PMS1003;74664;45.620;5.138;2024-02-23T06:45:21;4.00;4.00;2.00
84436;PMS1003;74664;45.620;5.138;2024-02-23T06:47:50;3.50;2.50;1.75
84436;PMS1003;74664;45.620;5.138;2024-02-23T06:50:19;7.25;7.00;4.25
84436;PMS1003;74664;45.620;5.138;2024-02-23T06:52:46;1.25;1.00;1.00
84436;PMS1003;74664;45.620;5.138;2024-02-23T06:55:14;2.50;2.00;2.00
84436;PMS1003;74664;45.620;5.138;2024-02-23T06:57:41;1.00;1.00;1.00
84436;PMS1003;74664;45.620;5.138;2024-02-23T07:00:08;1.25;1.00;1.00
84436;PMS1003;74664;45.620;5.138;2024-02-23T07:02:36;3.50;3.50;2.00
84436;PMS1003;74664;45.620;5.138;2024-02-23T07:05:03;2.00;2.00;1.50
84436;PMS1003;74664;45.620;5.138;2024-02-23T07:07:33;5.00;4.00;4.00
84436;PMS1003;74664;45.620;5.138;2024-02-23T07:10:00;4.00;4.00;2.00
84436;PMS1003;74664;45.620;5.138;2024-02-23T07:12:28;4.00;4.00;4.00
84436;PMS1003;74664;45.620;5.138;2024-02-23T07:14:55;6.75;6.75;5.00
84436;PMS1003;74664;45.620;5.138;2024-02-23T07:17:22;7.50;4.25;3.50
84436;PMS1003;74664;45.620;5.138;2024-02-23T07:19:48;6.25;4.25;4.00
84436;PMS1003;74664;45.620;5.138;2024-02-23T07:22:18;5.00;5.00;4.00
84436;PMS1003;74664;45.620;5.138;2024-02-23T07:24:46;5.00;5.00;4.00
84436;PMS1003;74664;45.620;5.138;2024-02-23T07:27:14;4.50;3.00;1.50
84436;PMS1003;74664;45.620;5.138;2024-02-23T07:29:41;4.25;4.25;3.00
84436;PMS1003;74664;45.620;5.138;2024-02-23T07:32:07;2.00;1.50;1.00
84436;PMS1003;74664;45.620;5.138;2024-02-23T07:34:34;3.00;2.00;1.50
84436;PMS1003;74664;45.620;5.138;2024-02-23T07:37:01;4.00;1.25;1.25
84436;PMS1003;74664;45.620;5.138;2024-02-23T07:39:27;4.00;4.00;3.00
84436;PMS1003;74664;45.620;5.138;2024-02-23T07:41:55;4.75;2.50;1.50
84436;PMS1003;74664;45.620;5.138;2024-02-23T07:44:22;5.50;3.50;2.00
84436;PMS1003;74664;45.620;5.138;2024-02-23T07:46:50;8.50;4.00;3.50
84436;PMS1003;74664;45.620;5.138;2024-02-23T07:49:17;10.25;10.25;7.00
84436;PMS1003;74664;45.620;5.138;2024-02-23T07:51:44;17.25;17.25;11.50
84436;PMS1003;74664;45.620;5.138;2024-02-23T07:54:10;8.75;8.75;7.00
84436;PMS1003;74664;45.620;5.138;2024-02-23T07:56:37;7.00;5.50;4.25
84436;PMS1003;74664;45.620;5.138;2024-02-23T07:59:05;6.00;6.00;2.50
84436;PMS1003;74664;45.620;5.138;2024-02-23T08:01:32;5.00;5.00;4.00
84436;PMS1003;74664;45.620;5.138;2024-02-23T08:03:59;4.75;4.75;3.50
84436;PMS1003;74664;45.620;5.138;2024-02-23T08:06:25;4.75;3.50;3.00
84436;PMS1003;74664;45.620;5.138;2024-02-23T08:08:52;7.25;5.00;4.00
84436;PMS1003;74664;45.620;5.138;2024-02-23T08:11:20;2.00;2.00;2.00
84436;PMS1003;74664;45.620;5.138;2024-02-23T08:13:48;1.00;1.00;1.00
84436;PMS1003;74664;45.620;5.138;2024-02-23T08:16:16;2.00;2.00;1.75
84436;PMS1003;74664;45.620;5.138;2024-02-23T08:18:43;1.50;1.50;1.00
84436;PMS1003;74664;45.620;5.138;2024-02-23T08:21:10;1.00;1.00;1.00
84436;PMS1003;74664;45.620;5.138;2024-02-23T08:23:37;1.00;1.00;1.00
84436;PMS1003;74664;45.620;5.138;2024-02-23T08:26:05;3.00;3.00;2.00
84436;PMS1003;74664;45.620;5.138;2024-02-23T08:28:32;3.50;1.00;1.00
84436;PMS1003;74664;45.620;5.138;2024-02-23T08:30:59;1.00;1.00;1.00
84436;PMS1003;74664;45.620;5.138;2024-02-23T08:33:27;4.00;1.25;1.25
84436;PMS1003;74664;45.620;5.138;2024-02-23T08:35:54;4.00;4.00;3.00
84436;PMS1003;74664;45.620;5.138;2024-02-23T08:38:20;4.75;2.00;1.25
84436;PMS1003;74664;45.620;5.138;2024-02-23T08:40:47;5.00;5.00;4.00
84436;PMS1003;74664;45.620;5.138;2024-02-23T08:43:15;5.00;4.25;2.00
84436;PMS1003;74664;45.620;5.138;2024-02-23T08:45:42;3.50;3.00;2.00
84436;PMS1003;74664;45.620;5.138;2024-02-23T08:48:08;4.00;1.75;1.00
84436;PMS1003;74664;45.620;5.138;2024-02-23T08:50:41;5.00;1.75;1.00
84436;PMS1003;74664;45.620;5.138;2024-02-23T08:53:08;3.00;2.00;1.50
84436;PMS1003;74664;45.620;5.138;2024-02-23T08:55:34;3.00;1.75;1.00
84436;PMS1003;74664;45.620;5.138;2024-02-23T08:58:01;2.00;2.00;2.00
84436;PMS1003;74664;45.620;5.138;2024-02-23T09:00:30;7.50;3.75;2.50
84436;PMS1003;74664;45.620;5.138;2024-02-23T09:02:57;3.00;2.00;2.00
84436;PMS1003;74664;45.620;5.138;2024-02-23T09:05:24;4.00;4.00;1.75
84436;PMS1003;74664;45.620;5.138;2024-02-23T09:07:53;3.00;3.00;2.00
84436;PMS1003;74664;45.620;5.138;2024-02-23T09:10:20;4.75;4.75;4.00
84436;PMS1003;74664;45.620;5.138;2024-02-23T09:12:47;4.00;4.00;2.00
84436;PMS1003;74664;45.620;5.138;2024-02-23T09:15:14;2.00;2.00;1.25
84436;PMS1003;74664;45.620;5.138;2024-02-23T09:17:42;2.00;2.00;2.00
84436;PMS1003;74664;45.620;5.138;2024-02-23T09:20:09;1.00;1.00;1.00
84436;PMS1003;74664;45.620;5.138;2024-02-23T09:22:37;0.75;0.75;0.50
84436;PMS1003;74664;45.620;5.138;2024-02-23T09:25:06;1.00;1.00;1.00
84436;PMS1003;74664;45.620;5.138;2024-02-23T09:27:33;1.00;1.00;0.50
84436;PMS1003;74664;45.620;5.138;2024-02-23T09:30:01;1.00;1.00;1.00
84436;PMS1003;74664;45.620;5.138;2024-02-23T09:32:29;5.00;1.25;1.00
84436;PMS1003;74664;45.620;5.138;2024-02-23T09:34:55;2.50;1.50;1.00
84436;PMS1003;74664;45.620;5.138;2024-02-23T09:37:22;3.50;1.75;1.50
84436;PMS1003;74664;45.620;5.138;2024-02-23T09:39:49;1.00;0.00;0.00
84436;PMS1003;74664;45.620;5.138;2024-02-23T09:42:18;4.00;4.00;2.00
84436;PMS1003;74664;45.620;5.138;2024-02-23T09:44:50;5.25;1.25;1.00
84436;PMS1003;74664;45.620;5.138;2024-02-23T09:47:25;0.00;0.00;0.00
84436;PMS1003;74664;45.620;5.138;2024-02-23T09:49:53;0.00;0.00;0.00
84436;PMS1003;74664;45.620;5.138;2024-02-23T09:52:21;0.00;0.00;0.00
84436;PMS1003;74664;45.620;5.138;2024-02-23T09:54:48;0.00;0.00;0.00
84436;PMS1003;74664;45.620;5.138;2024-02-23T09:57:15;0.00;0.00;0.00
84436;PMS1003;74664;45.620;5.138;2024-02-23T09:59:44;0.00;0.00;0.00
84436;PMS1003;74664;45.620;5.138;2024-02-23T10:02:14;0.00;0.00;0.00
84436;PMS1003;74664;45.620;5.138;2024-02-23T10:04:42;0.00;0.00;0.00
84436;PMS1003;74664;45.620;5.138;2024-02-23T10:07:09;1.00;0.00;0.00
84436;PMS1003;74664;45.620;5.138;2024-02-23T10:09:36;0.00;0.00;0.00
84436;PMS1003;74664;45.620;5.138;2024-02-23T10:12:03;0.00;0.00;0.00
84436;PMS1003;74664;45.620;5.138;2024-02-23T10:14:32;0.00;0.00;0.00
84436;PMS1003;74664;45.620;5.138;2024-02-23T10:16:59;0.00;0.00;0.00
84436;PMS1003;74664;45.620;5.138;2024-02-23T10:19:27;0.00;0.00;0.00
84436;PMS1003;74664;45.620;5.138;2024-02-23T10:21:55;0.00;0.00;0.00
84436;PMS1003;74664;45.620;5.138;2024-02-23T10:24:23;0.00;0.00;0.00
84436;PMS1003;74664;45.620;5.138;2024-02-23T10:26:50;0.00;0.00;0.00
84436;PMS1003;74664;45.620;5.138;2024-02-23T10:29:17;0.00;0.00;0.00
84436;PMS1003;74664;45.620;5.138;2024-02-23T10:31:45;0.00;0.00;0.00
84436;PMS1003;74664;45.620;5.138;2024-02-23T10:34:14;0.00;0.00;0.00
84436;PMS1003;74664;45.620;5.138;2024-02-23T10:36:45;0.00;0.00;0.00
84436;PMS1003;74664;45.620;5.138;2024-02-23T10:39:14;0.00;0.00;0.00
84436;PMS1003;74664;45.620;5.138;2024-02-23T10:41:44;0.00;0.00;0.00
84436;PMS1003;74664;45.620;5.138;2024-02-23T10:44:15;0.00;0.00;0.00
84436;PMS1003;74664;45.620;5.138;2024-02-23T10:46:45;0.00;0.00;0.00
84436;PMS1003;74664;45.620;5.138;2024-02-23T10:49:12;1.00;1.00;0.00
84436;PMS1003;74664;45.620;5.138;2024-02-23T10:51:42;0.00;0.00;0.00
84436;PMS1003;74664;45.620;5.138;2024-02-23T10:54:12;1.25;1.25;1.00
84436;PMS1003;74664;45.620;5.138;2024-02-23T10:56:40;0.00;0.00;0.00
84436;PMS1003;74664;45.620;5.138;2024-02-23T10:59:07;0.00;0.00;0.00
84436;PMS1003;74664;45.620;5.138;2024-02-23T11:01:34;0.00;0.00;0.00
84436;PMS1003;74664;45.620;5.138;2024-02-23T11:04:06;0.00;0.00;0.00
84436;PMS1003;74664;45.620;5.138;2024-02-23T11:06:34;0.00;0.00;0.00
84436;PMS1003;74664;45.620;5.138;2024-02-23T11:09:07;0.25;0.00;0.00
84436;PMS1003;74664;45.620;5.138;2024-02-23T11:11:34;0.00;0.00;0.00
84436;PMS1003;74664;45.620;5.138;2024-02-23T11:14:03;1.25;1.00;0.75
84436;PMS1003;74664;45.620;5.138;2024-02-23T11:16:33;0.00;0.00;0.00
84436;PMS1003;74664;45.620;5.138;2024-02-23T11:19:06;0.00;0.00;0.00
84436;PMS1003;74664;45.620;5.138;2024-02-23T11:21:36;0.75;0.00;0.00
84436;PMS1003;74664;45.620;5.138;2024-02-23T11:24:04;0.50;0.00;0.00
84436;PMS1003;74664;45.620;5.138;2024-02-23T11:26:31;0.00;0.00;0.00
84436;PMS1003;74664;45.620;5.138;2024-02-23T11:28:58;1.00;0.00;0.00
84436;PMS1003;74664;45.620;5.138;2024-02-23T11:31:35;0.00;0.00;0.00
84436;PMS1003;74664;45.620;5.138;2024-02-23T11:34:07;0.00;0.00;0.00
84436;PMS1003;74664;45.620;5.138;2024-02-23T11:36:36;0.00;0.00;0.00
84436;PMS1003;74664;45.620;5.138;2024-02-23T11:39:05;1.25;1.25;1.00
84436;PMS1003;74664;45.620;5.138;2024-02-23T11:41:31;0.00;0.00;0.00
84436;PMS1003;74664;45.620;5.138;2024-02-23T11:43:58;0.00;0.00;0.00
84436;PMS1003;74664;45.620;5.138;2024-02-23T11:46:25;10.75;10.75;9.25
84436;PMS1003;74664;45.620;5.138;2024-02-23T11:48:51;1.00;0.00;0.00
84436;PMS1003;74664;45.620;5.138;2024-02-23T11:51:21;0.00;0.00;0.00
84436;PMS1003;74664;45.620;5.138;2024-02-23T11:53:48;0.00;0.00;0.00
84436;PMS1003;74664;45.620;5.138;2024-02-23T11:56:15;0.00;0.00;0.00
84436;PMS1003;74664;45.620;5.138;2024-02-23T11:58:43;0.50;0.50;0.00
84436;PMS1003;74664;45.620;5.138;2024-02-23T12:01:10;0.50;0.50;0.25
84436;PMS1003;74664;45.620;5.138;2024-02-23T12:03:37;1.00;0.00;0.00
84436;PMS1003;74664;45.620;5.138;2024-02-23T12:06:04;0.25;0.25;0.00
84436;PMS1003;74664;45.620;5.138;2024-02-23T12:08:34;0.00;0.00;0.00
84436;PMS1003;74664;45.620;5.138;2024-02-23T12:11:04;0.00;0.00;0.00
84436;PMS1003;74664;45.620;5.138;2024-02-23T12:13:32;0.00;0.00;0.00
84436;PMS1003;74664;45.620;5.138;2024-02-23T12:15:59;0.00;0.00;0.00
84436;PMS1003;74664;45.620;5.138;2024-02-23T12:18:27;0.00;0.00;0.00
84436;PMS1003;74664;45.620;5.138;2024-02-23T12:20:58;0.00;0.00;0.00
84436;PMS1003;74664;45.620;5.138;2024-02-23T12:23:26;0.00;0.00;0.00
84436;PMS1003;74664;45.620;5.138;2024-02-23T12:25:54;0.00;0.00;0.00
84436;PMS1003;74664;45.620;5.138;2024-02-23T12:28:24;1.50;1.50;1.00
84436;PMS1003;74664;45.620;5.138;2024-02-23T12:31:00;3.00;3.00;2.25
84436;PMS1003;74664;45.620;5.138;2024-02-23T12:33:27;8.25;8.25;6.00
84436;PMS1003;74664;45.620;5.138;2024-02-23T12:35:55;0.00;0.00;0.00
84436;PMS1003;74664;45.620;5.138;2024-02-23T12:38:22;1.75;1.75;1.25
84436;PMS1003;74664;45.620;5.138;2024-02-23T12:40:49;0.50;0.50;0.50
84436;PMS1003;74664;45.620;5.138;2024-02-23T12:43:18;0.00;0.00;0.00
84436;PMS1003;74664;45.620;5.138;2024-02-23T12:45:46;0.00;0.00;0.00
84436;PMS1003;74664;45.620;5.138;2024-02-23T12:48:15;0.00;0.00;0.00
84436;PMS1003;74664;45.620;5.138;2024-02-23T12:50:42;0.00;0.00;0.00
84436;PMS1003;74664;45.620;5.138;2024-02-23T12:53:09;2.00;2.00;1.25
84436;PMS1003;74664;45.620;5.138;2024-02-23T12:55:37;0.25;0.00;0.00
84436;PMS1003;74664;45.620;5.138;2024-02-23T12:58:04;0.00;0.00;0.00
84436;PMS1003;74664;45.620;5.138;2024-02-23T13:00:32;0.75;0.00;0.00
84436;PMS1003;74664;45.620;5.138;2024-02-23T13:02:59;0.00;0.00;0.00
84436;PMS1003;74664;45.620;5.138;2024-02-23T13:05:25;0.00;0.00;0.00
84436;PMS1003;74664;45.620;5.138;2024-02-23T13:07:52;2.00;2.00;1.25
84436;PMS1003;74664;45.620;5.138;2024-02-23T13:10:19;0.00;0.00;0.00
84436;PMS1003;74664;45.620;5.138;2024-02-23T13:12:45;0.00;0.00;0.00
84436;PMS1003;74664;45.620;5.138;2024-02-23T13:15:12;0.00;0.00;0.00
84436;PMS1003;74664;45.620;5.138;2024-02-23T13:17:41;0.00;0.00;0.00
84436;PMS1003;74664;45.620;5.138;2024-02-23T13:20:08;0.00;0.00;0.00
84436;PMS1003;74664;45.620;5.138;2024-02-23T13:22:37;3.00;3.00;2.25
84436;PMS1003;74664;45.620;5.138;2024-02-23T13:25:04;1.25;1.25;1.00
84436;PMS1003;74664;45.620;5.138;2024-02-23T13:27:32;0.25;0.25;0.00
84436;PMS1003;74664;45.620;5.138;2024-02-23T13:29:58;4.00;4.00;2.75
84436;PMS1003;74664;45.620;5.138;2024-02-23T13:32:25;1.75;1.75;1.75
84436;PMS1003;74664;45.620;5.138;2024-02-23T13:34:53;4.00;4.00;3.00
84436;PMS1003;74664;45.620;5.138;2024-02-23T13:37:20;2.00;0.50;0.25
84436;PMS1003;74664;45.620;5.138;2024-02-23T13:39:47;1.75;1.75;1.50
84436;PMS1003;74664;45.620;5.138;2024-02-23T13:42:13;6.00;6.00;5.50
84436;PMS1003;74664;45.620;5.138;2024-02-23T13:44:40;1.00;1.00;1.00
84436;PMS1003;74664;45.620;5.138;2024-02-23T13:47:07;4.00;4.00;2.25
84436;PMS1003;74664;45.620;5.138;2024-02-23T13:49:35;8.50;8.50;6.00
84436;PMS1003;74664;45.620;5.138;2024-02-23T13:52:03;0.25;0.25;0.00
84436;PMS1003;74664;45.620;5.138;2024-02-23T13:54:30;1.25;1.25;1.25
84436;PMS1003;74664;45.620;5.138;2024-02-23T13:56:58;0.00;0.00;0.00
84436;PMS1003;74664;45.620;5.138;2024-02-23T13:59:27;0.00;0.00;0.00
84436;PMS1003;74664;45.620;5.138;2024-02-23T14:01:54;0.00;0.00;0.00
84436;PMS1003;74664;45.620;5.138;2024-02-23T14:04:20;0.00;0.00;0.00
84436;PMS1003;74664;45.620;5.138;2024-02-23T14:06:47;0.00;0.00;0.00
84436;PMS1003;74664;45.620;5.138;2024-02-23T14:09:15;0.00;0.00;0.00
84436;PMS1003;74664;45.620;5.138;2024-02-23T14:11:42;0.00;0.00;0.00
84436;PMS1003;74664;45.620;5.138;2024-02-23T14:14:10;0.00;0.00;0.00
84436;PMS1003;74664;45.620;5.138;2024-02-23T14:16:37;1.00;1.00;1.00
84436;PMS1003;74664;45.620;5.138;2024-02-23T14:19:03;0.00;0.00;0.00
84436;PMS1003;74664;45.620;5.138;2024-02-23T14:21:32;0.00;0.00;0.00
84436;PMS1003;74664;45.620;5.138;2024-02-23T14:24:02;0.00;0.00;0.00
84436;PMS1003;74664;45.620;5.138;2024-02-23T14:26:31;0.00;0.00;0.00